Terminal Aerodrome Forecast
Issued by NWS Twin Cities, MN

Home | Current Version | Previous Version | Text Only | Print | Product List | Glossary On
Versions: 1 2 3 4 5 6 7 8 9 10 11 12 13 14 15 16 17 18 19 20 21 22 23 24 25 26 27 28
000
FTUS43 KMPX 290219 AAC
TAFMSP
TAF AMD
KMSP 290219Z 2902/3006 30010KT P6SM BKN100
     FM290900 28010KT P6SM BKN050
     FM291200 28011G17KT P6SM BKN025
     FM291500 29018G26KT P6SM VCSH SCT015 OVC025
      TEMPO 2920/2924 5SM -SHRA BR BKN015 OVC020
     FM300100 30015KT P6SM OVC025=

USA.gov is the U.S. government's official web portal to all federal, state and local government web resources and services.